sensor_id;sensor_type;location;lat;lon;timestamp;pressure;altitude;pressure_sealevel;temperature;humidity
65897;BME280;52677;50.898;10.854;2022-08-11T00:00:56;99363.91;;;14.12;61.59
65897;BME280;52677;50.898;10.854;2022-08-11T00:03:04;99361.97;;;14.16;61.64
65897;BME280;52677;50.898;10.854;2022-08-11T00:05:13;99352.41;;;14.14;63.03
65897;BME280;52677;50.898;10.854;2022-08-11T00:07:14;99355.56;;;14.12;62.79
65897;BME280;52677;50.898;10.854;2022-08-11T00:09:18;99351.97;;;14.12;62.95
65897;BME280;52677;50.898;10.854;2022-08-11T00:11:20;99359.56;;;14.15;62.58
65897;BME280;52677;50.898;10.854;2022-08-11T00:13:21;99345.19;;;14.09;62.63
65897;BME280;52677;50.898;10.854;2022-08-11T00:15:27;99350.28;;;14.03;62.35
65897;BME280;52677;50.898;10.854;2022-08-11T00:17:32;99339.56;;;14.02;62.29
65897;BME280;52677;50.898;10.854;2022-08-11T00:19:38;99342.31;;;13.98;61.74
65897;BME280;52677;50.898;10.854;2022-08-11T00:21:42;99358.22;;;14.01;63.34
65897;BME280;52677;50.898;10.854;2022-08-11T00:24:00;99342.72;;;14.00;62.70
65897;BME280;52677;50.898;10.854;2022-08-11T00:26:05;99347.41;;;13.93;62.88
65897;BME280;52677;50.898;10.854;2022-08-11T00:30:23;99350.00;;;13.78;63.48
65897;BME280;52677;50.898;10.854;2022-08-11T00:32:23;99352.22;;;13.66;64.48
65897;BME280;52677;50.898;10.854;2022-08-11T00:34:27;99350.53;;;13.58;64.02
65897;BME280;52677;50.898;10.854;2022-08-11T00:36:50;99349.69;;;13.54;63.80
65897;BME280;52677;50.898;10.854;2022-08-11T00:38:52;99356.81;;;13.51;63.78
65897;BME280;52677;50.898;10.854;2022-08-11T00:40:58;99361.97;;;13.53;62.45
65897;BME280;52677;50.898;10.854;2022-08-11T00:43:14;99354.03;;;13.51;63.15
65897;BME280;52677;50.898;10.854;2022-08-11T00:45:26;99361.13;;;13.48;63.85
65897;BME280;52677;50.898;10.854;2022-08-11T00:51:57;99366.63;;;13.45;63.80
65897;BME280;52677;50.898;10.854;2022-08-11T00:54:30;99363.44;;;13.43;64.14
65897;BME280;52677;50.898;10.854;2022-08-11T01:01:16;99360.59;;;13.39;62.39
65897;BME280;52677;50.898;10.854;2022-08-11T01:20:02;99356.50;;;13.07;63.70
65897;BME280;52677;50.898;10.854;2022-08-11T01:27:22;99363.13;;;13.21;62.70
65897;BME280;52677;50.898;10.854;2022-08-11T01:43:18;99361.41;;;12.90;64.60
65897;BME280;52677;50.898;10.854;2022-08-11T01:46:02;99355.69;;;12.80;65.74
65897;BME280;52677;50.898;10.854;2022-08-11T01:50:39;99353.91;;;12.45;67.36
65897;BME280;52677;50.898;10.854;2022-08-11T01:53:03;99359.75;;;12.40;67.51
65897;BME280;52677;50.898;10.854;2022-08-11T01:57:49;99355.97;;;12.29;67.78
65897;BME280;52677;50.898;10.854;2022-08-11T02:00:07;99353.63;;;12.31;67.15
65897;BME280;52677;50.898;10.854;2022-08-11T02:04:32;99353.88;;;12.22;69.38
65897;BME280;52677;50.898;10.854;2022-08-11T02:11:29;99352.94;;;12.15;69.96
65897;BME280;52677;50.898;10.854;2022-08-11T02:18:39;99353.34;;;11.94;68.94
65897;BME280;52677;50.898;10.854;2022-08-11T02:21:01;99343.75;;;11.91;69.06
65897;BME280;52677;50.898;10.854;2022-08-11T02:23:34;99356.97;;;11.98;66.81
65897;BME280;52677;50.898;10.854;2022-08-11T02:25:58;99357.09;;;12.05;66.31
65897;BME280;52677;50.898;10.854;2022-08-11T02:30:33;99345.63;;;11.84;68.43
65897;BME280;52677;50.898;10.854;2022-08-11T02:36:15;99347.78;;;11.94;66.29
65897;BME280;52677;50.898;10.854;2022-08-11T02:42:23;99347.38;;;11.57;69.22
65897;BME280;52677;50.898;10.854;2022-08-11T02:44:48;99349.78;;;11.58;68.69
65897;BME280;52677;50.898;10.854;2022-08-11T02:47:08;99349.22;;;11.68;67.98
65897;BME280;52677;50.898;10.854;2022-08-11T02:57:21;99350.03;;;11.69;70.47
65897;BME280;52677;50.898;10.854;2022-08-11T02:59:36;99354.19;;;11.59;71.61
65897;BME280;52677;50.898;10.854;2022-08-11T03:01:57;99342.03;;;11.48;71.29
65897;BME280;52677;50.898;10.854;2022-08-11T03:04:24;99344.38;;;11.46;70.45
65897;BME280;52677;50.898;10.854;2022-08-11T03:06:58;99350.66;;;11.43;69.93
65897;BME280;52677;50.898;10.854;2022-08-11T03:09:07;99353.78;;;11.41;70.39
65897;BME280;52677;50.898;10.854;2022-08-11T03:11:20;99348.16;;;11.38;71.00
65897;BME280;52677;50.898;10.854;2022-08-11T03:13:45;99353.91;;;11.29;71.84
65897;BME280;52677;50.898;10.854;2022-08-11T03:21:11;99351.25;;;11.17;71.38
65897;BME280;52677;50.898;10.854;2022-08-11T03:23:27;99368.69;;;11.17;70.40
65897;BME280;52677;50.898;10.854;2022-08-11T03:27:59;99366.09;;;11.09;71.12
65897;BME280;52677;50.898;10.854;2022-08-11T03:33:21;99366.56;;;10.95;72.43
65897;BME280;52677;50.898;10.854;2022-08-11T03:36:17;99366.47;;;10.91;71.12
65897;BME280;52677;50.898;10.854;2022-08-11T03:38:15;99370.41;;;10.90;70.30
65897;BME280;52677;50.898;10.854;2022-08-11T03:46:03;99374.78;;;10.76;72.31
65897;BME280;52677;50.898;10.854;2022-08-11T03:48:18;99367.56;;;10.71;72.20
65897;BME280;52677;50.898;10.854;2022-08-11T03:58:26;99376.03;;;10.62;71.44
65897;BME280;52677;50.898;10.854;2022-08-11T04:00:28;99371.84;;;10.53;71.71
65897;BME280;52677;50.898;10.854;2022-08-11T04:11:54;99377.19;;;10.46;72.07
65897;BME280;52677;50.898;10.854;2022-08-11T04:19:59;99387.00;;;10.43;73.04
65897;BME280;52677;50.898;10.854;2022-08-11T04:30:33;99373.88;;;10.40;73.63
65897;BME280;52677;50.898;10.854;2022-08-11T04:33:48;99377.19;;;10.46;73.07
65897;BME280;52677;50.898;10.854;2022-08-11T04:35:56;99375.22;;;10.46;72.99
65897;BME280;52677;50.898;10.854;2022-08-11T04:40:53;99364.34;;;10.53;72.14
65897;BME280;52677;50.898;10.854;2022-08-11T04:43:25;99363.38;;;10.61;72.16
65897;BME280;52677;50.898;10.854;2022-08-11T04:50:21;99366.47;;;10.91;70.40
65897;BME280;52677;50.898;10.854;2022-08-11T04:53:28;99370.13;;;10.95;70.60
65897;BME280;52677;50.898;10.854;2022-08-11T04:59:07;99369.16;;;11.04;69.85
65897;BME280;52677;50.898;10.854;2022-08-11T05:12:30;99370.50;;;11.45;71.04
65897;BME280;52677;50.898;10.854;2022-08-11T05:14:54;99372.69;;;11.55;70.21
65897;BME280;52677;50.898;10.854;2022-08-11T05:17:28;99384.78;;;11.66;70.28
65897;BME280;52677;50.898;10.854;2022-08-11T05:19:50;99378.78;;;11.80;69.47
65897;BME280;52677;50.898;10.854;2022-08-11T05:22:11;99377.88;;;11.92;71.45
65897;BME280;52677;50.898;10.854;2022-08-11T05:24:44;99363.41;;;12.02;69.36
65897;BME280;52677;50.898;10.854;2022-08-11T05:27:08;99381.94;;;12.17;67.62
65897;BME280;52677;50.898;10.854;2022-08-11T05:29:48;99376.72;;;12.35;69.07
65897;BME280;52677;50.898;10.854;2022-08-11T05:32:15;99375.69;;;12.43;69.47
65897;BME280;52677;50.898;10.854;2022-08-11T05:34:43;99381.78;;;12.52;69.14
65897;BME280;52677;50.898;10.854;2022-08-11T05:37:51;99384.69;;;12.59;69.65
65897;BME280;52677;50.898;10.854;2022-08-11T05:39:30;99375.31;;;12.68;69.32
65897;BME280;52677;50.898;10.854;2022-08-11T05:41:56;99376.25;;;12.75;69.32
65897;BME280;52677;50.898;10.854;2022-08-11T05:44:17;99370.00;;;12.82;67.21
65897;BME280;52677;50.898;10.854;2022-08-11T05:46:38;99371.78;;;12.93;67.51
65897;BME280;52677;50.898;10.854;2022-08-11T05:48:58;99377.13;;;13.06;68.06
65897;BME280;52677;50.898;10.854;2022-08-11T05:51:18;99387.25;;;13.17;68.47
65897;BME280;52677;50.898;10.854;2022-08-11T05:54:03;99393.47;;;13.34;67.75
65897;BME280;52677;50.898;10.854;2022-08-11T05:56:25;99383.31;;;13.45;68.32
65897;BME280;52677;50.898;10.854;2022-08-11T05:58:33;99380.25;;;13.54;68.73
65897;BME280;52677;50.898;10.854;2022-08-11T06:00:41;99380.84;;;13.66;68.02
65897;BME280;52677;50.898;10.854;2022-08-11T06:02:50;99376.59;;;13.76;66.50
65897;BME280;52677;50.898;10.854;2022-08-11T06:04:55;99377.13;;;13.89;67.31
65897;BME280;52677;50.898;10.854;2022-08-11T06:06:59;99377.66;;;13.98;67.09
65897;BME280;52677;50.898;10.854;2022-08-11T06:09:01;99373.78;;;14.06;66.89
65897;BME280;52677;50.898;10.854;2022-08-11T06:11:04;99379.47;;;14.17;66.45
65897;BME280;52677;50.898;10.854;2022-08-11T06:13:06;99371.56;;;14.22;65.09
65897;BME280;52677;50.898;10.854;2022-08-11T06:15:09;99373.69;;;14.32;65.11
65897;BME280;52677;50.898;10.854;2022-08-11T06:17:11;99376.56;;;14.43;65.14
65897;BME280;52677;50.898;10.854;2022-08-11T06:19:13;99366.81;;;14.56;65.67
65897;BME280;52677;50.898;10.854;2022-08-11T06:21:14;99375.69;;;14.73;65.12
65897;BME280;52677;50.898;10.854;2022-08-11T06:23:17;99372.28;;;14.90;65.29
65897;BME280;52677;50.898;10.854;2022-08-11T06:25:18;99368.38;;;15.02;64.17
65897;BME280;52677;50.898;10.854;2022-08-11T06:27:20;99372.03;;;15.09;63.03
65897;BME280;52677;50.898;10.854;2022-08-11T06:29:23;99378.88;;;15.19;62.56
65897;BME280;52677;50.898;10.854;2022-08-11T06:31:25;99376.94;;;15.27;63.02
65897;BME280;52677;50.898;10.854;2022-08-11T06:33:32;99376.59;;;15.39;63.36
65897;BME280;52677;50.898;10.854;2022-08-11T06:38:13;99374.38;;;15.62;62.46
65897;BME280;52677;50.898;10.854;2022-08-11T06:42:55;99368.13;;;15.87;61.69
65897;BME280;52677;50.898;10.854;2022-08-11T06:47:26;99369.41;;;16.07;61.33
65897;BME280;52677;50.898;10.854;2022-08-11T06:49:36;99371.03;;;16.15;60.63
65897;BME280;52677;50.898;10.854;2022-08-11T06:51:59;99369.88;;;16.27;60.40
65897;BME280;52677;50.898;10.854;2022-08-11T06:54:00;99380.66;;;16.36;59.76
65897;BME280;52677;50.898;10.854;2022-08-11T06:56:01;99371.53;;;16.49;60.13
65897;BME280;52677;50.898;10.854;2022-08-11T06:58:21;99377.53;;;16.62;59.04
65897;BME280;52677;50.898;10.854;2022-08-11T07:00:46;99380.38;;;16.73;58.51
65897;BME280;52677;50.898;10.854;2022-08-11T07:02:48;99386.38;;;16.82;58.47
65897;BME280;52677;50.898;10.854;2022-08-11T07:04:57;99387.56;;;16.95;57.98
65897;BME280;52677;50.898;10.854;2022-08-11T07:10:06;99386.38;;;17.25;57.34
65897;BME280;52677;50.898;10.854;2022-08-11T07:12:40;99374.38;;;17.38;56.43
65897;BME280;52677;50.898;10.854;2022-08-11T07:15:02;99387.50;;;17.59;55.98
65897;BME280;52677;50.898;10.854;2022-08-11T07:17:23;99380.69;;;17.78;55.51
65897;BME280;52677;50.898;10.854;2022-08-11T07:19:26;99381.06;;;17.87;54.24
65897;BME280;52677;50.898;10.854;2022-08-11T07:21:46;99386.59;;;18.02;53.92
65897;BME280;52677;50.898;10.854;2022-08-11T07:24:16;99386.97;;;18.14;52.35
65897;BME280;52677;50.898;10.854;2022-08-11T07:26:35;99369.34;;;18.21;52.92
65897;BME280;52677;50.898;10.854;2022-08-11T07:28:55;99368.88;;;18.30;52.41
65897;BME280;52677;50.898;10.854;2022-08-11T07:31:05;99367.22;;;18.36;51.48
65897;BME280;52677;50.898;10.854;2022-08-11T07:33:07;99370.41;;;18.41;50.96
65897;BME280;52677;50.898;10.854;2022-08-11T07:35:11;99370.78;;;18.47;50.88
65897;BME280;52677;50.898;10.854;2022-08-11T07:37:15;99357.13;;;18.52;50.88
65897;BME280;52677;50.898;10.854;2022-08-11T07:39:27;99364.28;;;18.61;50.69
65897;BME280;52677;50.898;10.854;2022-08-11T07:41:33;99354.63;;;18.69;50.47
65897;BME280;52677;50.898;10.854;2022-08-11T07:43:34;99362.19;;;18.75;49.96
65897;BME280;52677;50.898;10.854;2022-08-11T07:45:34;99361.31;;;18.86;50.22
65897;BME280;52677;50.898;10.854;2022-08-11T07:47:54;99355.22;;;18.94;49.63
65897;BME280;52677;50.898;10.854;2022-08-11T07:50:13;99362.31;;;19.09;48.91
65897;BME280;52677;50.898;10.854;2022-08-11T07:52:34;99362.25;;;19.20;48.55
65897;BME280;52677;50.898;10.854;2022-08-11T07:54:37;99369.28;;;19.39;48.46
65897;BME280;52677;50.898;10.854;2022-08-11T07:56:38;99368.41;;;19.46;47.48
65897;BME280;52677;50.898;10.854;2022-08-11T07:58:39;99368.72;;;19.55;47.46
65897;BME280;52677;50.898;10.854;2022-08-11T08:00:59;99366.59;;;19.70;47.12
65897;BME280;52677;50.898;10.854;2022-08-11T08:03:18;99364.09;;;19.75;47.22
65897;BME280;52677;50.898;10.854;2022-08-11T08:05:38;99365.59;;;19.87;46.75
65897;BME280;52677;50.898;10.854;2022-08-11T08:07:57;99359.06;;;19.93;46.57
65897;BME280;52677;50.898;10.854;2022-08-11T08:10:18;99360.91;;;20.07;46.41
65897;BME280;52677;50.898;10.854;2022-08-11T08:12:39;99361.56;;;20.18;46.70
65897;BME280;52677;50.898;10.854;2022-08-11T08:15:00;99354.22;;;20.28;45.96
65897;BME280;52677;50.898;10.854;2022-08-11T08:17:24;99350.81;;;20.44;45.87
65897;BME280;52677;50.898;10.854;2022-08-11T08:19:47;99343.00;;;20.55;45.30
65897;BME280;52677;50.898;10.854;2022-08-11T08:21:48;99352.97;;;20.60;46.22
65897;BME280;52677;50.898;10.854;2022-08-11T08:23:48;99355.31;;;20.65;44.86
65897;BME280;52677;50.898;10.854;2022-08-11T08:25:50;99355.09;;;20.79;44.01
65897;BME280;52677;50.898;10.854;2022-08-11T08:27:52;99349.63;;;20.95;44.23
65897;BME280;52677;50.898;10.854;2022-08-11T08:29:53;99347.75;;;21.09;43.64
65897;BME280;52677;50.898;10.854;2022-08-11T08:32:12;99356.75;;;21.23;43.24
65897;BME280;52677;50.898;10.854;2022-08-11T08:34:16;99358.69;;;21.30;42.92
65897;BME280;52677;50.898;10.854;2022-08-11T08:36:21;99353.78;;;21.34;43.36
65897;BME280;52677;50.898;10.854;2022-08-11T08:38:22;99354.53;;;21.38;42.49
65897;BME280;52677;50.898;10.854;2022-08-11T08:40:23;99347.22;;;21.41;42.87
65897;BME280;52677;50.898;10.854;2022-08-11T08:42:31;99348.19;;;21.54;42.43
65897;BME280;52677;50.898;10.854;2022-08-11T08:44:35;99355.19;;;21.66;41.51
65897;BME280;52677;50.898;10.854;2022-08-11T08:46:42;99351.03;;;21.74;41.29
65897;BME280;52677;50.898;10.854;2022-08-11T08:48:45;99357.00;;;21.76;40.97
65897;BME280;52677;50.898;10.854;2022-08-11T08:50:50;99346.03;;;21.81;41.47
65897;BME280;52677;50.898;10.854;2022-08-11T08:53:10;99347.47;;;21.90;41.30
65897;BME280;52677;50.898;10.854;2022-08-11T08:55:17;99345.75;;;21.96;40.63
65897;BME280;52677;50.898;10.854;2022-08-11T08:57:17;99336.59;;;22.11;39.92
65897;BME280;52677;50.898;10.854;2022-08-11T08:59:21;99343.28;;;22.18;40.65
65897;BME280;52677;50.898;10.854;2022-08-11T09:01:23;99335.84;;;22.27;40.30
65897;BME280;52677;50.898;10.854;2022-08-11T09:03:24;99331.34;;;22.30;40.10
65897;BME280;52677;50.898;10.854;2022-08-11T09:05:27;99338.88;;;22.36;40.19
65897;BME280;52677;50.898;10.854;2022-08-11T09:07:27;99334.84;;;22.54;39.67
65897;BME280;52677;50.898;10.854;2022-08-11T09:09:29;99329.91;;;22.58;39.58
65897;BME280;52677;50.898;10.854;2022-08-11T09:11:31;99328.44;;;22.69;39.50
65897;BME280;52677;50.898;10.854;2022-08-11T09:13:50;99323.03;;;22.75;39.11
65897;BME280;52677;50.898;10.854;2022-08-11T09:15:51;99324.44;;;22.83;39.35
65897;BME280;52677;50.898;10.854;2022-08-11T09:17:53;99316.72;;;22.87;39.41
65897;BME280;52677;50.898;10.854;2022-08-11T09:20:20;99314.88;;;22.97;38.42
65897;BME280;52677;50.898;10.854;2022-08-11T09:22:21;99318.91;;;23.12;37.77
65897;BME280;52677;50.898;10.854;2022-08-11T09:24:40;99314.22;;;23.22;37.28
65897;BME280;52677;50.898;10.854;2022-08-11T09:27:10;99323.91;;;23.37;37.44
65897;BME280;52677;50.898;10.854;2022-08-11T09:29:10;99312.66;;;23.50;37.10
65897;BME280;52677;50.898;10.854;2022-08-11T09:31:12;99321.81;;;23.70;36.92
65897;BME280;52677;50.898;10.854;2022-08-11T09:33:15;99313.22;;;23.74;36.86
65897;BME280;52677;50.898;10.854;2022-08-11T09:35:16;99319.47;;;23.81;36.61
65897;BME280;52677;50.898;10.854;2022-08-11T09:37:20;99313.53;;;23.92;36.99
65897;BME280;52677;50.898;10.854;2022-08-11T09:39:40;99301.56;;;24.01;37.44
65897;BME280;52677;50.898;10.854;2022-08-11T09:42:01;99303.50;;;24.17;36.97
65897;BME280;52677;50.898;10.854;2022-08-11T09:44:02;99296.59;;;24.30;37.41
65897;BME280;52677;50.898;10.854;2022-08-11T09:46:35;99288.94;;;24.44;34.93
65897;BME280;52677;50.898;10.854;2022-08-11T09:48:44;99287.69;;;24.32;35.70
65897;BME280;52677;50.898;10.854;2022-08-11T09:50:49;99287.47;;;24.39;36.11
65897;BME280;52677;50.898;10.854;2022-08-11T09:52:50;99290.63;;;24.54;35.43
65897;BME280;52677;50.898;10.854;2022-08-11T09:54:51;99283.59;;;24.71;35.98
65897;BME280;52677;50.898;10.854;2022-08-11T09:56:53;99279.06;;;24.74;35.21
65897;BME280;52677;50.898;10.854;2022-08-11T09:59:12;99273.53;;;24.70;34.99
65897;BME280;52677;50.898;10.854;2022-08-11T10:01:14;99276.13;;;24.64;34.47
65897;BME280;52677;50.898;10.854;2022-08-11T10:03:26;99267.19;;;24.79;35.56
65897;BME280;52677;50.898;10.854;2022-08-11T10:05:28;99275.44;;;24.73;35.80
65897;BME280;52677;50.898;10.854;2022-08-11T10:07:49;99268.53;;;24.87;35.76
65897;BME280;52677;50.898;10.854;2022-08-11T10:09:55;99261.56;;;25.13;33.78
65897;BME280;52677;50.898;10.854;2022-08-11T10:11:58;99275.31;;;25.37;34.13
65897;BME280;52677;50.898;10.854;2022-08-11T10:14:04;99268.56;;;25.21;33.52
65897;BME280;52677;50.898;10.854;2022-08-11T10:16:27;99264.28;;;25.17;33.99
65897;BME280;52677;50.898;10.854;2022-08-11T10:18:36;99251.16;;;24.98;34.19
65897;BME280;52677;50.898;10.854;2022-08-11T10:20:41;99249.72;;;24.93;34.35
65897;BME280;52677;50.898;10.854;2022-08-11T10:22:44;99256.72;;;25.01;33.57
65897;BME280;52677;50.898;10.854;2022-08-11T10:25:03;99261.09;;;25.15;34.12
65897;BME280;52677;50.898;10.854;2022-08-11T10:27:23;99249.16;;;25.33;32.09
65897;BME280;52677;50.898;10.854;2022-08-11T10:29:26;99251.13;;;25.45;32.49
65897;BME280;52677;50.898;10.854;2022-08-11T10:31:45;99244.41;;;25.52;31.62
65897;BME280;52677;50.898;10.854;2022-08-11T10:34:07;99258.19;;;25.62;31.15
65897;BME280;52677;50.898;10.854;2022-08-11T10:36:08;99239.13;;;25.63;31.80
65897;BME280;52677;50.898;10.854;2022-08-11T10:38:08;99233.91;;;25.74;31.64
65897;BME280;52677;50.898;10.854;2022-08-11T10:40:14;99230.31;;;25.61;31.83
65897;BME280;52677;50.898;10.854;2022-08-11T10:42:15;99232.69;;;25.62;32.01
65897;BME280;52677;50.898;10.854;2022-08-11T10:44:40;99233.94;;;25.83;30.88
65897;BME280;52677;50.898;10.854;2022-08-11T10:46:41;99240.81;;;26.04;29.85
65897;BME280;52677;50.898;10.854;2022-08-11T10:49:00;99228.13;;;26.18;29.89
65897;BME280;52677;50.898;10.854;2022-08-11T10:51:01;99231.28;;;26.20;29.99
65897;BME280;52677;50.898;10.854;2022-08-11T10:53:14;99238.56;;;26.30;29.80
65897;BME280;52677;50.898;10.854;2022-08-11T10:55:35;99235.06;;;26.17;29.07
65897;BME280;52677;50.898;10.854;2022-08-11T10:57:55;99235.06;;;26.17;30.13
65897;BME280;52677;50.898;10.854;2022-08-11T11:00:15;99223.38;;;26.15;29.32
65897;BME280;52677;50.898;10.854;2022-08-11T11:02:16;99236.19;;;26.28;30.39
65897;BME280;52677;50.898;10.854;2022-08-11T11:04:20;99231.63;;;26.31;29.91
65897;BME280;52677;50.898;10.854;2022-08-11T11:06:26;99215.44;;;26.31;29.62
65897;BME280;52677;50.898;10.854;2022-08-11T11:08:29;99221.16;;;26.41;29.68
65897;BME280;52677;50.898;10.854;2022-08-11T11:10:49;99222.25;;;26.43;29.62
65897;BME280;52677;50.898;10.854;2022-08-11T11:12:54;99220.41;;;26.49;29.78
65897;BME280;52677;50.898;10.854;2022-08-11T11:15:17;99208.41;;;26.45;29.40
65897;BME280;52677;50.898;10.854;2022-08-11T11:17:44;99223.38;;;26.46;29.43
65897;BME280;52677;50.898;10.854;2022-08-11T11:20:02;99218.09;;;26.35;29.02
65897;BME280;52677;50.898;10.854;2022-08-11T11:22:06;99205.72;;;26.42;29.43
65897;BME280;52677;50.898;10.854;2022-08-11T11:32:15;99199.78;;;26.76;28.66
65897;BME280;52677;50.898;10.854;2022-08-11T11:34:22;99202.03;;;26.81;29.56
65897;BME280;52677;50.898;10.854;2022-08-11T11:36:48;99200.44;;;26.90;28.29
65897;BME280;52677;50.898;10.854;2022-08-11T11:38:50;99200.91;;;26.97;29.26
65897;BME280;52677;50.898;10.854;2022-08-11T11:40:51;99192.44;;;27.06;29.13
65897;BME280;52677;50.898;10.854;2022-08-11T11:43:12;99184.84;;;27.12;28.44
65897;BME280;52677;50.898;10.854;2022-08-11T11:45:18;99198.91;;;27.07;28.11
65897;BME280;52677;50.898;10.854;2022-08-11T11:47:19;99190.38;;;27.07;29.07
65897;BME280;52677;50.898;10.854;2022-08-11T11:49:24;99182.34;;;27.14;29.12
65897;BME280;52677;50.898;10.854;2022-08-11T11:51:26;99193.53;;;27.27;28.50
65897;BME280;52677;50.898;10.854;2022-08-11T11:53:27;99189.28;;;27.23;28.06
65897;BME280;52677;50.898;10.854;2022-08-11T11:55:29;99190.53;;;27.12;28.32
65897;BME280;52677;50.898;10.854;2022-08-11T11:57:30;99194.28;;;27.00;28.34
65897;BME280;52677;50.898;10.854;2022-08-11T11:59:51;99176.78;;;26.83;28.73
65897;BME280;52677;50.898;10.854;2022-08-11T12:02:12;99182.94;;;26.91;28.32
65897;BME280;52677;50.898;10.854;2022-08-11T12:04:16;99176.47;;;27.00;28.41
65897;BME280;52677;50.898;10.854;2022-08-11T12:06:17;99175.72;;;27.08;28.31
65897;BME280;52677;50.898;10.854;2022-08-11T12:08:20;99173.28;;;27.43;28.03
65897;BME280;52677;50.898;10.854;2022-08-11T12:10:21;99190.16;;;27.65;27.58
65897;BME280;52677;50.898;10.854;2022-08-11T12:12:22;99171.19;;;27.81;27.43
65897;BME280;52677;50.898;10.854;2022-08-11T12:14:42;99181.38;;;27.96;27.79
65897;BME280;52677;50.898;10.854;2022-08-11T12:16:44;99181.13;;;27.85;26.99
65897;BME280;52677;50.898;10.854;2022-08-11T12:18:46;99169.28;;;27.78;27.76
65897;BME280;52677;50.898;10.854;2022-08-11T12:20:48;99161.88;;;27.62;27.71
65897;BME280;52677;50.898;10.854;2022-08-11T12:22:49;99173.56;;;27.55;27.92
65897;BME280;52677;50.898;10.854;2022-08-11T12:25:08;99163.47;;;27.54;27.84
65897;BME280;52677;50.898;10.854;2022-08-11T12:27:29;99164.72;;;27.71;28.09
65897;BME280;52677;50.898;10.854;2022-08-11T12:29:29;99168.16;;;27.84;27.55
65897;BME280;52677;50.898;10.854;2022-08-11T12:31:32;99155.38;;;27.80;27.04
65897;BME280;52677;50.898;10.854;2022-08-11T12:33:33;99150.16;;;27.78;27.80
65897;BME280;52677;50.898;10.854;2022-08-11T12:35:34;99143.50;;;27.90;27.01
65897;BME280;52677;50.898;10.854;2022-08-11T12:37:39;99148.22;;;27.93;27.19
65897;BME280;52677;50.898;10.854;2022-08-11T12:39:46;99146.69;;;27.83;27.20
65897;BME280;52677;50.898;10.854;2022-08-11T12:42:07;99143.72;;;27.68;27.22
65897;BME280;52677;50.898;10.854;2022-08-11T12:44:28;99143.53;;;27.81;27.73
65897;BME280;52677;50.898;10.854;2022-08-11T12:46:47;99131.25;;;27.75;26.97
65897;BME280;52677;50.898;10.854;2022-08-11T12:48:54;99139.09;;;27.80;27.73
65897;BME280;52677;50.898;10.854;2022-08-11T12:51:19;99137.16;;;27.95;27.53
65897;BME280;52677;50.898;10.854;2022-08-11T12:53:44;99123.28;;;27.88;27.32
65897;BME280;52677;50.898;10.854;2022-08-11T12:55:45;99119.19;;;27.89;26.89
65897;BME280;52677;50.898;10.854;2022-08-11T12:58:08;99127.34;;;27.96;26.88
65897;BME280;52677;50.898;10.854;2022-08-11T13:00:17;99119.72;;;28.03;26.90
65897;BME280;52677;50.898;10.854;2022-08-11T13:02:39;99115.47;;;28.07;26.03
65897;BME280;52677;50.898;10.854;2022-08-11T13:05:01;99107.38;;;27.82;26.31
65897;BME280;52677;50.898;10.854;2022-08-11T13:07:02;99110.59;;;27.98;25.88
65897;BME280;52677;50.898;10.854;2022-08-11T13:09:04;99104.25;;;28.04;27.03
65897;BME280;52677;50.898;10.854;2022-08-11T13:11:07;99108.25;;;28.21;26.48
65897;BME280;52677;50.898;10.854;2022-08-11T13:13:27;99112.69;;;28.22;25.14
65897;BME280;52677;50.898;10.854;2022-08-11T13:15:28;99104.72;;;28.35;25.91
65897;BME280;52677;50.898;10.854;2022-08-11T13:17:30;99101.94;;;28.50;25.24
65897;BME280;52677;50.898;10.854;2022-08-11T13:19:31;99105.91;;;28.67;25.69
65897;BME280;52677;50.898;10.854;2022-08-11T13:21:33;99092.38;;;28.77;25.87
65897;BME280;52677;50.898;10.854;2022-08-11T13:23:34;99101.63;;;28.87;25.62
65897;BME280;52677;50.898;10.854;2022-08-11T13:25:36;99100.13;;;28.76;25.44
65897;BME280;52677;50.898;10.854;2022-08-11T13:27:37;99109.16;;;28.75;25.83
65897;BME280;52677;50.898;10.854;2022-08-11T13:29:40;99107.75;;;28.56;24.82
65897;BME280;52677;50.898;10.854;2022-08-11T13:31:41;99105.84;;;28.28;25.58
65897;BME280;52677;50.898;10.854;2022-08-11T13:33:47;99098.75;;;28.24;25.23
65897;BME280;52677;50.898;10.854;2022-08-11T13:35:51;99097.72;;;28.12;25.38
65897;BME280;52677;50.898;10.854;2022-08-11T13:37:53;99086.91;;;28.25;25.78
65897;BME280;52677;50.898;10.854;2022-08-11T13:39:55;99093.34;;;28.35;25.56
65897;BME280;52677;50.898;10.854;2022-08-11T13:41:58;99097.16;;;28.56;25.31
65897;BME280;52677;50.898;10.854;2022-08-11T13:43:59;99092.00;;;28.45;24.60
65897;BME280;52677;50.898;10.854;2022-08-11T13:46:00;99090.72;;;28.22;24.93
65897;BME280;52677;50.898;10.854;2022-08-11T13:48:20;99082.63;;;28.30;25.94
65897;BME280;52677;50.898;10.854;2022-08-11T13:50:24;99074.91;;;28.45;25.19
65897;BME280;52677;50.898;10.854;2022-08-11T13:52:45;99078.50;;;28.55;25.05
65897;BME280;52677;50.898;10.854;2022-08-11T13:54:47;99078.72;;;28.66;25.11
65897;BME280;52677;50.898;10.854;2022-08-11T13:56:53;99070.06;;;28.61;24.74
65897;BME280;52677;50.898;10.854;2022-08-11T13:58:55;99073.41;;;28.59;25.00
65897;BME280;52677;50.898;10.854;2022-08-11T14:00:56;99072.94;;;28.75;24.59
65897;BME280;52677;50.898;10.854;2022-08-11T14:02:58;99072.56;;;28.82;24.29
65897;BME280;52677;50.898;10.854;2022-08-11T14:05:12;99074.06;;;28.93;24.97
65897;BME280;52677;50.898;10.854;2022-08-11T14:07:20;99073.09;;;28.96;24.69
65897;BME280;52677;50.898;10.854;2022-08-11T14:09:26;99073.16;;;28.87;23.98
65897;BME280;52677;50.898;10.854;2022-08-11T14:11:27;99067.78;;;28.89;23.38
65897;BME280;52677;50.898;10.854;2022-08-11T14:13:49;99061.75;;;28.87;24.14
65897;BME280;52677;50.898;10.854;2022-08-11T14:15:51;99058.50;;;28.79;23.88